EWG1UB EDDM-EDDF
Flight info
| Callsign | EWG1UB |
|---|---|
| Flight time | 0h 35m |
| Altitude | 22000 |
| Route | GIVMI6Q/08L GIVMI Y101 ERNAS T161 DEBHI DEBHI1B |
| Aircraft | A320/M-SDE3FGHIRWY/LB1 |
Departure
| Time | 2026-05-04 11:27 |
|---|---|
| Airport | Munich Airport (EDDM) |
Arrival
| Time | 2026-05-04 12:02 |
|---|---|
| Airport | Frankfurt Main Airport (EDDF) |
| Time | Latitude | Longitude | Altitude | Speed | Heading |
|---|---|---|---|---|---|
| 2026-05-04 11:05 | 48.35351 | 11.79303 | 1462 ft | 0 kts | 261° |
| 2026-05-04 11:12 | 48.35351 | 11.79304 | 1467 ft | 0 kts | 261° |
| 2026-05-04 11:16 | 48.35362 | 11.79408 | 1459 ft | 2 kts | 261° |
| 2026-05-04 11:16 | 48.35360 | 11.79432 | 1460 ft | 2 kts | 306° |
| 2026-05-04 11:16 | 48.35351 | 11.79453 | 1458 ft | 2 kts | 317° |
| 2026-05-04 11:17 | 48.35338 | 11.79469 | 1458 ft | 2 kts | 339° |
| 2026-05-04 11:17 | 48.35335 | 11.79471 | 1456 ft | 0 kts | 347° |
| 2026-05-04 11:19 | 48.35364 | 11.79468 | 1461 ft | 9 kts | 356° |
| 2026-05-04 11:19 | 48.35418 | 11.79497 | 1458 ft | 8 kts | 33° |
| 2026-05-04 11:19 | 48.35466 | 11.79545 | 1467 ft | 8 kts | 38° |
| 2026-05-04 11:19 | 48.35509 | 11.79526 | 1462 ft | 6 kts | 330° |
| 2026-05-04 11:20 | 48.35541 | 11.79509 | 1463 ft | 4 kts | 349° |
| 2026-05-04 11:20 | 48.35565 | 11.79503 | 1467 ft | 3 kts | 352° |
| 2026-05-04 11:20 | 48.35579 | 11.79500 | 1461 ft | 1 kts | 352° |
| 2026-05-04 11:20 | 48.35585 | 11.79499 | 1463 ft | 0 kts | 352° |
| 2026-05-04 11:22 | 48.36093 | 11.79342 | 1468 ft | 11 kts | 264° |
| 2026-05-04 11:22 | 48.36084 | 11.79237 | 1462 ft | 9 kts | 263° |
| 2026-05-04 11:23 | 48.36078 | 11.79145 | 1459 ft | 10 kts | 264° |
| 2026-05-04 11:23 | 48.36067 | 11.78995 | 1463 ft | 19 kts | 264° |
| 2026-05-04 11:24 | 48.35957 | 11.77569 | 1467 ft | 24 kts | 263° |
| 2026-05-04 11:25 | 48.35937 | 11.77301 | 1467 ft | 27 kts | 264° |
| 2026-05-04 11:25 | 48.35934 | 11.77072 | 1460 ft | 17 kts | 302° |
| 2026-05-04 11:25 | 48.36035 | 11.76972 | 1466 ft | 16 kts | 353° |
| 2026-05-04 11:26 | 48.36273 | 11.76967 | 1459 ft | 14 kts | 44° |
| 2026-05-04 11:27 | 48.36655 | 11.82052 | 2132 ft | 178 kts | 85° |
| 2026-05-04 11:28 | 48.36742 | 11.83942 | 2748 ft | 183 kts | 86° |
| 2026-05-04 11:28 | 48.36843 | 11.85872 | 3307 ft | 190 kts | 76° |
| 2026-05-04 11:28 | 48.37598 | 11.87589 | 3575 ft | 215 kts | 34° |
| 2026-05-04 11:28 | 48.39113 | 11.88171 | 3952 ft | 242 kts | 1° |
| 2026-05-04 11:29 | 48.40856 | 11.87751 | 4394 ft | 266 kts | 337° |
| 2026-05-04 11:29 | 48.42329 | 11.86000 | 5178 ft | 276 kts | 309° |
| 2026-05-04 11:29 | 48.43449 | 11.83614 | 6068 ft | 282 kts | 303° |
| 2026-05-04 11:29 | 48.44644 | 11.81294 | 6983 ft | 284 kts | 308° |
| 2026-05-04 11:31 | 48.54005 | 11.65091 | 12745 ft | 304 kts | 307° |
| 2026-05-04 11:33 | 48.64663 | 11.46175 | 16149 ft | 371 kts | 307° |
| 2026-05-04 11:33 | 48.66318 | 11.43229 | 16767 ft | 374 kts | 307° |
| 2026-05-04 11:33 | 48.68014 | 11.40209 | 17394 ft | 377 kts | 307° |
| 2026-05-04 11:34 | 48.69773 | 11.37236 | 18010 ft | 382 kts | 313° |
| 2026-05-04 11:34 | 48.71861 | 11.34685 | 18530 ft | 390 kts | 323° |
| 2026-05-04 11:34 | 48.74134 | 11.32400 | 19036 ft | 393 kts | 323° |
| 2026-05-04 11:34 | 48.76416 | 11.30105 | 19583 ft | 394 kts | 323° |
| 2026-05-04 11:35 | 48.78706 | 11.27792 | 20110 ft | 397 kts | 323° |
| 2026-05-04 11:35 | 48.81012 | 11.25454 | 20622 ft | 399 kts | 323° |
| 2026-05-04 11:35 | 48.83330 | 11.23098 | 21110 ft | 402 kts | 323° |
| 2026-05-04 11:35 | 48.85526 | 11.20485 | 21609 ft | 402 kts | 314° |
| 2026-05-04 11:36 | 48.87591 | 11.17604 | 21934 ft | 404 kts | 314° |
| 2026-05-04 11:36 | 48.89665 | 11.14713 | 22005 ft | 404 kts | 314° |
| 2026-05-04 11:36 | 48.91738 | 11.11824 | 22009 ft | 404 kts | 314° |
| 2026-05-04 11:36 | 48.93811 | 11.08933 | 22018 ft | 404 kts | 315° |
| 2026-05-04 11:37 | 48.95890 | 11.06037 | 22019 ft | 404 kts | 315° |
| 2026-05-04 11:37 | 48.97937 | 11.03182 | 22031 ft | 405 kts | 314° |
| 2026-05-04 11:37 | 49.00013 | 11.00280 | 22027 ft | 405 kts | 314° |
| 2026-05-04 11:37 | 49.02086 | 10.97370 | 22025 ft | 404 kts | 314° |
| 2026-05-04 11:38 | 49.04149 | 10.94466 | 22040 ft | 404 kts | 314° |
| 2026-05-04 11:38 | 49.06212 | 10.91559 | 22039 ft | 404 kts | 314° |
| 2026-05-04 11:38 | 49.08277 | 10.88647 | 22039 ft | 404 kts | 314° |
| 2026-05-04 11:38 | 49.10341 | 10.85737 | 22034 ft | 403 kts | 314° |
| 2026-05-04 11:39 | 49.12403 | 10.82825 | 22048 ft | 403 kts | 314° |
| 2026-05-04 11:39 | 49.14462 | 10.79909 | 22047 ft | 403 kts | 314° |
| 2026-05-04 11:40 | 49.26477 | 10.61958 | 22047 ft | 403 kts | 310° |
| 2026-05-04 11:41 | 49.28405 | 10.58838 | 22048 ft | 402 kts | 310° |
| 2026-05-04 11:41 | 49.30333 | 10.55733 | 22050 ft | 402 kts | 310° |
| 2026-05-04 11:41 | 49.32265 | 10.52645 | 22048 ft | 401 kts | 311° |
| 2026-05-04 11:41 | 49.34182 | 10.49608 | 22047 ft | 401 kts | 311° |
| 2026-05-04 11:42 | 49.36088 | 10.46483 | 22022 ft | 399 kts | 306° |
| 2026-05-04 11:42 | 49.37725 | 10.43056 | 22021 ft | 397 kts | 302° |
| 2026-05-04 11:42 | 49.39313 | 10.39578 | 22013 ft | 397 kts | 302° |
| 2026-05-04 11:42 | 49.40895 | 10.36099 | 22012 ft | 397 kts | 302° |
| 2026-05-04 11:43 | 49.41945 | 10.33786 | 22009 ft | 397 kts | 302° |
| 2026-05-04 11:43 | 49.44063 | 10.29128 | 22033 ft | 398 kts | 302° |
| 2026-05-04 11:43 | 49.45630 | 10.25688 | 22026 ft | 398 kts | 302° |
| 2026-05-04 11:43 | 49.47220 | 10.22199 | 22024 ft | 398 kts | 302° |
| 2026-05-04 11:44 | 49.48810 | 10.18703 | 22008 ft | 399 kts | 302° |
| 2026-05-04 11:44 | 49.50399 | 10.15199 | 22011 ft | 399 kts | 302° |
| 2026-05-04 11:44 | 49.51983 | 10.11699 | 21968 ft | 397 kts | 301° |
| 2026-05-04 11:44 | 49.53539 | 10.08263 | 21715 ft | 386 kts | 301° |
| 2026-05-04 11:45 | 49.55055 | 10.04906 | 21377 ft | 378 kts | 301° |
| 2026-05-04 11:45 | 49.56042 | 10.02714 | 21070 ft | 375 kts | 301° |
| 2026-05-04 11:45 | 49.57527 | 9.99411 | 20624 ft | 373 kts | 301° |
| 2026-05-04 11:45 | 49.58999 | 9.96133 | 20140 ft | 371 kts | 301° |
| 2026-05-04 11:46 | 49.60463 | 9.92870 | 19671 ft | 369 kts | 301° |
| 2026-05-04 11:46 | 49.61924 | 9.89619 | 19198 ft | 368 kts | 301° |
| 2026-05-04 11:46 | 49.63381 | 9.86377 | 18716 ft | 368 kts | 301° |
| 2026-05-04 11:46 | 49.64836 | 9.83132 | 18225 ft | 367 kts | 301° |
| 2026-05-04 11:47 | 49.66285 | 9.79893 | 17710 ft | 366 kts | 301° |
| 2026-05-04 11:47 | 49.67724 | 9.76670 | 17241 ft | 363 kts | 301° |
| 2026-05-04 11:47 | 49.69152 | 9.73463 | 16776 ft | 361 kts | 301° |
| 2026-05-04 11:47 | 49.70549 | 9.70313 | 16316 ft | 359 kts | 302° |
| 2026-05-04 11:48 | 49.71960 | 9.67133 | 15854 ft | 358 kts | 301° |
| 2026-05-04 11:48 | 49.73422 | 9.64030 | 15406 ft | 358 kts | 309° |
| 2026-05-04 11:48 | 49.75185 | 9.61317 | 14987 ft | 356 kts | 314° |
| 2026-05-04 11:48 | 49.76981 | 9.58683 | 14576 ft | 353 kts | 314° |
| 2026-05-04 11:49 | 49.78762 | 9.56071 | 14172 ft | 351 kts | 314° |
| 2026-05-04 11:49 | 49.80523 | 9.53471 | 13770 ft | 349 kts | 314° |
| 2026-05-04 11:49 | 49.82271 | 9.50879 | 13318 ft | 347 kts | 314° |
| 2026-05-04 11:49 | 49.84010 | 9.48302 | 12869 ft | 344 kts | 314° |
| 2026-05-04 11:50 | 49.85737 | 9.45746 | 12423 ft | 342 kts | 314° |
| 2026-05-04 11:50 | 49.87454 | 9.43208 | 11988 ft | 339 kts | 314° |
| 2026-05-04 11:50 | 49.89155 | 9.40694 | 11563 ft | 337 kts | 314° |
| 2026-05-04 11:50 | 49.90845 | 9.38198 | 11145 ft | 334 kts | 314° |
| 2026-05-04 11:51 | 49.92522 | 9.35724 | 10722 ft | 331 kts | 314° |
| 2026-05-04 11:51 | 49.94197 | 9.33268 | 10307 ft | 329 kts | 314° |
| 2026-05-04 11:51 | 49.95837 | 9.30883 | 9904 ft | 326 kts | 314° |
| 2026-05-04 11:51 | 49.97488 | 9.28487 | 9456 ft | 323 kts | 314° |
| 2026-05-04 11:52 | 49.99120 | 9.26093 | 9006 ft | 322 kts | 314° |
| 2026-05-04 11:52 | 50.00738 | 9.23706 | 8556 ft | 320 kts | 314° |
| 2026-05-04 11:52 | 50.02345 | 9.21329 | 8132 ft | 317 kts | 314° |
| 2026-05-04 11:52 | 50.03938 | 9.18967 | 7706 ft | 316 kts | 314° |
| 2026-05-04 11:53 | 50.05514 | 9.16621 | 7266 ft | 307 kts | 314° |
| 2026-05-04 11:53 | 50.07020 | 9.14383 | 6907 ft | 291 kts | 314° |
| 2026-05-04 11:53 | 50.08453 | 9.12258 | 6539 ft | 278 kts | 314° |
| 2026-05-04 11:53 | 50.09820 | 9.10236 | 6164 ft | 265 kts | 314° |
| 2026-05-04 11:55 | 50.12285 | 8.93744 | 4011 ft | 224 kts | 255° |
| 2026-05-04 11:55 | 50.11784 | 8.91482 | 4004 ft | 215 kts | 248° |
| 2026-05-04 11:56 | 50.11268 | 8.89352 | 4008 ft | 204 kts | 249° |
| 2026-05-04 11:56 | 50.10794 | 8.87352 | 4005 ft | 190 kts | 249° |
| 2026-05-04 11:56 | 50.10348 | 8.85458 | 3883 ft | 184 kts | 249° |
| 2026-05-04 11:56 | 50.09914 | 8.83615 | 3684 ft | 180 kts | 249° |
| 2026-05-04 11:57 | 50.09483 | 8.81787 | 3449 ft | 181 kts | 249° |
| 2026-05-04 11:57 | 50.09096 | 8.79929 | 3279 ft | 179 kts | 254° |
| 2026-05-04 11:57 | 50.08860 | 8.78039 | 2967 ft | 177 kts | 257° |
| 2026-05-04 11:57 | 50.08652 | 8.76259 | 2789 ft | 157 kts | 257° |
| 2026-05-04 11:58 | 50.08344 | 8.74688 | 2516 ft | 149 kts | 249° |
| 2026-05-04 11:58 | 50.07992 | 8.73220 | 2277 ft | 141 kts | 247° |
| 2026-05-04 11:58 | 50.07655 | 8.71819 | 2073 ft | 140 kts | 248° |
| 2026-05-04 11:58 | 50.07329 | 8.70406 | 1937 ft | 139 kts | 251° |
| 2026-05-04 11:59 | 50.07035 | 8.68967 | 1782 ft | 140 kts | 251° |
| 2026-05-04 11:59 | 50.06668 | 8.67582 | 1668 ft | 138 kts | 244° |
| 2026-05-04 11:59 | 50.06298 | 8.66240 | 1500 ft | 136 kts | 247° |
| 2026-05-04 11:59 | 50.05964 | 8.64870 | 1216 ft | 137 kts | 249° |
| 2026-05-04 12:00 | 50.05652 | 8.63476 | 1001 ft | 135 kts | 250° |
| 2026-05-04 12:00 | 50.05322 | 8.62089 | 851 ft | 137 kts | 250° |
| 2026-05-04 12:00 | 50.04991 | 8.60711 | 676 ft | 137 kts | 252° |
| 2026-05-04 12:00 | 50.04663 | 8.59338 | 487 ft | 134 kts | 249° |
| 2026-05-04 12:01 | 50.04343 | 8.57991 | 373 ft | 126 kts | 250° |
| 2026-05-04 12:01 | 50.04080 | 8.56896 | 365 ft | 76 kts | 249° |
| 2026-05-04 12:02 | 50.04107 | 8.56193 | 356 ft | 14 kts | 66° |
| 2026-05-04 12:03 | 50.04149 | 8.56368 | 357 ft | 21 kts | 70° |
| 2026-05-04 12:03 | 50.04196 | 8.56569 | 355 ft | 19 kts | 70° |
| 2026-05-04 12:03 | 50.04234 | 8.56725 | 361 ft | 12 kts | 69° |
| 2026-05-04 12:03 | 50.04260 | 8.56836 | 363 ft | 10 kts | 70° |
| 2026-05-04 12:04 | 50.04285 | 8.56938 | 365 ft | 11 kts | 70° |
| 2026-05-04 12:04 | 50.04309 | 8.57040 | 362 ft | 10 kts | 70° |
| 2026-05-04 12:04 | 50.04330 | 8.57131 | 364 ft | 8 kts | 70° |
| 2026-05-04 12:04 | 50.04349 | 8.57210 | 362 ft | 7 kts | 70° |
| 2026-05-04 12:05 | 50.04392 | 8.57388 | 368 ft | 27 kts | 69° |
| 2026-05-04 12:05 | 50.04461 | 8.57673 | 364 ft | 29 kts | 69° |
| 2026-05-04 12:05 | 50.04523 | 8.57940 | 362 ft | 15 kts | 70° |
| 2026-05-04 12:05 | 50.04591 | 8.58024 | 361 ft | 13 kts | 352° |
| 2026-05-04 12:06 | 50.04672 | 8.57979 | 362 ft | 12 kts | 339° |
| 2026-05-04 12:06 | 50.04741 | 8.57939 | 362 ft | 10 kts | 341° |
| 2026-05-04 12:06 | 50.04800 | 8.57905 | 362 ft | 9 kts | 337° |
| 2026-05-04 12:06 | 50.04842 | 8.57854 | 364 ft | 7 kts | 302° |
| 2026-05-04 12:07 | 50.04864 | 8.57775 | 364 ft | 10 kts | 293° |
| 2026-05-04 12:07 | 50.04896 | 8.57661 | 365 ft | 12 kts | 293° |
| 2026-05-04 12:07 | 50.04933 | 8.57535 | 364 ft | 8 kts | 295° |
| 2026-05-04 12:07 | 50.04959 | 8.57447 | 362 ft | 7 kts | 294° |
| 2026-05-04 12:08 | 50.04991 | 8.57405 | 361 ft | 5 kts | 336° |
| 2026-05-04 12:08 | 50.05002 | 8.57422 | 361 ft | 2 kts | 71° |
| 2026-05-04 12:08 | 50.05004 | 8.57429 | 367 ft | 0 kts | 70° |